Flight Track Log - Related Links

Times and Time Zones

All times are in EDT time to prevent confusion due to time zone crossing. See the LBQ455 flight status page for this flight to view local times or setup timezone preferences in your user account.


Time Position Orientation Groundspeed Altitude Reporting Facility
EDT Latitude Longitude Course Direction KTS MPH feet Rate Location/Type
Fri 08:29:14 PM 41.5094 -72.9044 94° East 330 380 6,400  Level Boston Center
Fri 08:30:16 PM 41.5022 -72.7592 94° East 364 419 9,000 2,390 Climbing Boston Center
Fri 08:31:17 PM 41.4964 -72.6189 93° East 376 433 11,300 1,220 Climbing Boston Center
Fri 08:32:19 PM 41.4897 -72.4633 93° East 425 489 11,500 98 Climbing Boston Center
Fri 08:33:20 PM 41.4822 -72.2875 93° East 441 507 11,500  Level Boston Center
Fri 08:34:21 PM 41.4753 -72.1286 93° East 439 505 11,500  Level Boston Center
Fri 08:35:23 PM 41.4661 -71.9561 94° East 437 503 11,500  Level Boston Center
Fri 08:36:24 PM 41.4589 -71.7969 93° East 435 501 11,500  Level Boston Center
Fri 08:37:26 PM 41.4506 -71.6378 94° East 435 501 11,500  Level Boston Center
Fri 08:38:27 PM 41.4411 -71.4653 94° East 435 501 11,500 -140 Level Boston Center
Fri 08:38:52 PM 41.4375 -71.4000 94° East 434 499 11,300 -1,672 Descending Boston Center
Fri 08:39:28 PM 41.4331 -71.3078 94° East 431 496 9,800 -2,571 Descending Boston Center
Fri 08:40:30 PM 41.4247 -71.1644 94° East 391 450 7,100 -2,537 Descending Boston Center
Fri 08:41:31 PM 41.4150 -71.0183 95° East 372 428 4,600 -2,000 Descending Boston Center
Fri 08:42:33 PM 41.4119 -70.8886 92° East 356 410 3,000 -1,122 Descending Boston Center
Fri 08:43:34 PM 41.4164 -70.7728 87° East 318 366 2,300 -492 Descending Boston Center
Fri 08:44:35 PM 41.4261 -70.6717 83° East 262 302 2,000 -390 Descending Boston Center
Fri 08:45:37 PM 41.4367 -70.6042 78° East 191 220 1,500 -829 Descending Boston Center
Fri 08:46:38 PM 41.4050 -70.6000 174° South 141 162 300 -1,180 Descending Boston Center
Fri 08:48:00 PM 41.3833 -70.6000 180° South  Level FlightAware Approximate

Login

Don't have an account? Register now (free) for customized features, flight alerts, and more!